Flood From: 19-02-2018 10:30 Until: 20-02-2018 06:00 warning for: Flood Level: Yellow info button

Although rather usual in this region, locally or potentially dangerous phenomena are expected. (such as local winds, summer thunderstorms, rising streams or high waves) Be aware and pay attention to the latest weather updates, especially if you carry out activities exposed to weather or close to a stream or shoreline. 


Meteo18 Weather Cam more information Meteo18 Weather Cam


Thunder radar more information blitzortung!


Rain radar more information rain snow radar


Visit our other weather sites:

Template documentation
and downloads

And another site



Weather Underground History page Text

Daily Summary for January 6, 2017 Units:  Metric    English   Both
« Previous Day
Next Day »
Daily Weekly Monthly Yearly Custom
  High: Low: Average:
Temperature: -17.8 °C -20.3 °C -19 °C
Dew Point: -17.8 °C -21.3 °C -20.2 °C
Humidity: Humidity % 63 % 86 %
Wind Speed: 0 km/h 0 km/h 6.4 km/h
Wind Gust: 0 km/h - -
Wind:- - East
Pressure: 0 hPa 35082.3 hPa -
Precipitation: 0 mm    
Historical Graphs
 
 
Tabular Data for January 6, 2017
Time Temperature Dew Point Pressure Wind Wind Speed Wind Gust Humidity Rainfall Rate (Hourly)
-17.8 °C -17.8 °C 0 hPa Calm     Humidity % 0 mm
00:02 -17.7 °C -18.1 °C 35095.9 hPa NE 10.3 km/h 18.2 km/h 96 % 0 mm
00:07 -17.7 °C -18.1 °C 35095.9 hPa NNW 2.6 km/h 18.2 km/h 96 % 0 mm
00:12 -17.8 °C -18.2 °C 35095.9 hPa NNE 2.6 km/h 18.2 km/h 96 % 0 mm
00:17 -17.8 °C -18.2 °C 35095.9 hPa NNE 2.6 km/h 12.9 km/h 96 % 0 mm
00:22 -17.8 °C -18.1 °C 35095.9 hPa North 2.6 km/h 18.2 km/h 96 % 0 mm
00:32 -17.9 °C -18.2 °C 35095.9 hPa NE 2.6 km/h 18.2 km/h 96 % 0 mm
00:42 -18 °C -18.3 °C 35095.9 hPa NNW 2.6 km/h 10.3 km/h 96 % 0 mm
00:47 -18 °C -18.3 °C 35095.9 hPa NNE 12.9 km/h 12.9 km/h 96 % 0 mm
00:52 -18.1 °C -18.4 °C 35095.9 hPa NNW 5.1 km/h 15.6 km/h 96 % 0 mm
00:57 -18.1 °C -18.4 °C 35095.9 hPa North 5.1 km/h 15.6 km/h 96 % 0 mm
01:02 -18.1 °C -18.4 °C 35095.9 hPa NE 7.7 km/h 15.6 km/h 96 % 0 mm
01:07 -18.1 °C -18.4 °C 35095.9 hPa NNW 5.1 km/h 12.9 km/h 96 % 0 mm
01:12 -18.2 °C -18.5 °C 35095.9 hPa NE 15.6 km/h 15.6 km/h 96 % 0 mm
01:17 -18.2 °C -18.5 °C 35095.9 hPa NNE 5.1 km/h 18.2 km/h 96 % 0 mm
01:22 -18.2 °C -18.6 °C 35095.9 hPa North 7.7 km/h 18.2 km/h 96 % 0 mm
01:32 -18.3 °C -18.6 °C 35095.9 hPa NE 7.7 km/h 12.9 km/h 96 % 0 mm
01:37 -18.3 °C -18.6 °C 35082.3 hPa NE 5.1 km/h 12.9 km/h 96 % 0 mm
01:42 -18.4 °C -18.8 °C 35082.3 hPa Calm   12.9 km/h 95 % 0 mm
01:52 -18.5 °C -18.9 °C 35082.3 hPa ENE 2.6 km/h 7.7 km/h 95 % 0 mm
01:57 -18.6 °C -18.9 °C 35082.3 hPa ENE 2.6 km/h 7.7 km/h 95 % 0 mm
02:02 -18.7 °C -19.1 °C 35082.3 hPa Calm   5.1 km/h 95 % 0 mm
02:07 -18.8 °C -19.2 °C 35082.3 hPa Calm   5.1 km/h 95 % 0 mm
02:12 -18.8 °C -19.2 °C 35082.3 hPa Calm   5.1 km/h 95 % 0 mm
02:17 -18.9 °C -19.3 °C 35095.9 hPa Calm   2.6 km/h 96 % 0 mm
02:22 -19 °C -19.3 °C 35095.9 hPa Calm   2.6 km/h 96 % 0 mm
02:27 -19 °C -19.3 °C 35095.9 hPa Calm   2.6 km/h 96 % 0 mm
02:32 -19 °C -19.3 °C 35095.9 hPa Calm   2.6 km/h 96 % 0 mm
02:37 -18.9 °C -19.3 °C 35082.3 hPa NNE 2.6 km/h 5.1 km/h 96 % 0 mm
02:42 -18.9 °C -19.2 °C 35095.9 hPa NNE 2.6 km/h 7.7 km/h 96 % 0 mm
02:47 -18.9 °C -19.2 °C 35095.9 hPa NE 5.1 km/h 7.7 km/h 96 % 0 mm
02:52 -18.9 °C -19.2 °C 35095.9 hPa ENE 2.6 km/h 7.7 km/h 96 % 0 mm
02:57 -18.8 °C -19.2 °C 35095.9 hPa NNE 7.7 km/h 7.7 km/h 96 % 0 mm
03:02 -18.8 °C -19.2 °C 35095.9 hPa NNE 7.7 km/h 10.3 km/h 96 % 0 mm
03:07 -18.8 °C -19.2 °C 35095.9 hPa NE 2.6 km/h 12.9 km/h 96 % 0 mm
03:12 -18.8 °C -19.2 °C 35106 hPa Calm   12.9 km/h 96 % 0 mm
03:17 -18.9 °C -19.3 °C 35106 hPa NNE 2.6 km/h 12.9 km/h 95 % 0 mm
03:22 -18.9 °C -19.3 °C 35106 hPa Calm   10.3 km/h 96 % 0 mm
03:32 -19.1 °C -19.4 °C 35106 hPa Calm   5.1 km/h 95 % 0 mm
03:37 -19.1 °C -19.5 °C 35106 hPa North 2.6 km/h 5.1 km/h 95 % 0 mm
03:42 -19.1 °C -19.4 °C 35106 hPa NNE 5.1 km/h 7.7 km/h 96 % 0 mm
03:52 -19.1 °C -19.4 °C 35095.9 hPa ENE 5.1 km/h 7.7 km/h 96 % 0 mm
03:57 -19.1 °C -19.4 °C 35095.9 hPa Calm   7.7 km/h 96 % 0 mm
04:02 -19.1 °C -19.4 °C 35095.9 hPa Calm   7.7 km/h 96 % 0 mm
04:07 -19.2 °C -19.5 °C 35095.9 hPa NNE 2.6 km/h 7.7 km/h 96 % 0 mm
04:12 -19.2 °C -19.5 °C 35095.9 hPa NNE 2.6 km/h 5.1 km/h 96 % 0 mm
04:17 -19.2 °C -19.5 °C 35095.9 hPa Calm   7.7 km/h 96 % 0 mm
04:22 -19.3 °C -19.6 °C 35106 hPa Calm   7.7 km/h 96 % 0 mm
04:27 -19.3 °C -19.6 °C 35106 hPa NNW 2.6 km/h 5.1 km/h 96 % 0 mm
04:37 -19.3 °C -19.6 °C 35106 hPa Calm   5.1 km/h 96 % 0 mm
04:42 -19.4 °C -19.7 °C 35106 hPa NNE 2.6 km/h 5.1 km/h 96 % 0 mm
04:47 -19.5 °C -19.8 °C 35106 hPa North 2.6 km/h 5.1 km/h 96 % 0 mm
04:52 -19.6 °C -19.8 °C 35106 hPa NNE 2.6 km/h 2.6 km/h 96 % 0 mm
04:57 -19.6 °C -19.9 °C 35106 hPa NNE 2.6 km/h 2.6 km/h 96 % 0 mm
05:02 -19.6 °C -19.8 °C 35106 hPa Calm   5.1 km/h 96 % 0 mm
05:12 -19.6 °C -19.8 °C 35106 hPa North 2.6 km/h 5.1 km/h 96 % 0 mm
05:17 -19.5 °C -19.8 °C 35116.2 hPa North 5.1 km/h 5.1 km/h 96 % 0 mm
05:22 -19.5 °C -19.8 °C 35116.2 hPa NNW 2.6 km/h 5.1 km/h 96 % 0 mm
05:27 -19.5 °C -19.8 °C 35106 hPa NNW 2.6 km/h 7.7 km/h 96 % 0 mm
05:32 -19.6 °C -19.8 °C 35116.2 hPa North 5.1 km/h 7.7 km/h 96 % 0 mm
05:37 -19.6 °C -20 °C 35116.2 hPa NNE 5.1 km/h 7.7 km/h 95 % 0 mm
05:42 -19.7 °C -20.1 °C 35116.2 hPa Calm   7.7 km/h 95 % 0 mm
05:52 -19.7 °C -20.1 °C 35116.2 hPa Calm   7.7 km/h 95 % 0 mm
05:57 -19.7 °C -20.1 °C 35116.2 hPa NNW 2.6 km/h 7.7 km/h 95 % 0 mm
06:02 -19.7 °C -20.1 °C 35116.2 hPa NNE 2.6 km/h 7.7 km/h 95 % 0 mm
06:07 -19.7 °C -20.1 °C 35116.2 hPa Calm   5.1 km/h 95 % 0 mm
06:12 -19.8 °C -20.2 °C 35116.2 hPa North 2.6 km/h 5.1 km/h 95 % 0 mm
06:17 -19.8 °C -20.2 °C 35116.2 hPa Calm   5.1 km/h 95 % 0 mm
06:22 -19.8 °C -20.2 °C 35129.8 hPa NNW 2.6 km/h 5.1 km/h 95 % 0 mm
06:27 -19.8 °C -20.2 °C 35129.8 hPa Calm   5.1 km/h 95 % 0 mm
06:32 -19.8 °C -20.2 °C 35129.8 hPa Calm   5.1 km/h 95 % 0 mm
06:42 -19.8 °C -20.2 °C 35116.2 hPa NNE 2.6 km/h 5.1 km/h 95 % 0 mm
06:47 -19.8 °C -20.2 °C 35129.8 hPa North 2.6 km/h 5.1 km/h 95 % 0 mm
06:57 -19.9 °C -20.3 °C 35129.8 hPa NNE 5.1 km/h 7.7 km/h 94 % 0 mm
07:02 -19.9 °C -20.4 °C 35129.8 hPa Calm   7.7 km/h 94 % 0 mm
07:12 -19.9 °C -20.3 °C 35129.8 hPa North 5.1 km/h 7.7 km/h 95 % 0 mm
07:17 -19.9 °C -20.4 °C 35129.8 hPa NE 2.6 km/h 10.3 km/h 94 % 0 mm
07:22 -20 °C -20.4 °C 35129.8 hPa North 2.6 km/h 10.3 km/h 94 % 0 mm
07:32 -20.1 °C -20.5 °C 35129.8 hPa Calm   10.3 km/h 94 % 0 mm
07:37 -20.1 °C -20.6 °C 35139.9 hPa North 2.6 km/h 10.3 km/h 94 % 0 mm
07:42 -20.1 °C -20.6 °C 35139.9 hPa Calm   10.3 km/h 94 % 0 mm
07:47 -20.1 °C -20.6 °C 35139.9 hPa North 2.6 km/h 5.1 km/h 94 % 0 mm
07:52 -20.2 °C -20.6 °C 35139.9 hPa Calm   5.1 km/h 94 % 0 mm
07:57 -20.2 °C -20.6 °C 35139.9 hPa Calm   5.1 km/h 94 % 0 mm
08:02 -20.2 °C -20.7 °C 35139.9 hPa Calm   5.1 km/h 94 % 0 mm
08:07 -20.2 °C -20.7 °C 35139.9 hPa Calm   2.6 km/h 94 % 0 mm
08:12 -20.3 °C -20.7 °C 35139.9 hPa Calm   2.6 km/h 94 % 0 mm
08:17 -20.3 °C -20.7 °C 35139.9 hPa Calm   2.6 km/h 94 % 0 mm
08:22 -20.3 °C -20.8 °C 35139.9 hPa Calm   2.6 km/h 94 % 0 mm
08:27 -20.3 °C -20.7 °C 35150.1 hPa Calm   5.1 km/h 94 % 0 mm
08:32 -20.3 °C -20.7 °C 35150.1 hPa NE 2.6 km/h 5.1 km/h 94 % 0 mm
08:37 -20.2 °C -20.8 °C 35150.1 hPa Calm   5.1 km/h 93 % 0 mm
08:42 -20.3 °C -20.8 °C 35150.1 hPa Calm   7.7 km/h 93 % 0 mm
08:47 -20.3 °C -20.9 °C 35150.1 hPa NNE 5.1 km/h 7.7 km/h 93 % 0 mm
08:52 -20.2 °C -20.8 °C 35150.1 hPa Calm   7.7 km/h 93 % 0 mm
08:57 -20.2 °C -20.7 °C 35163.6 hPa Calm   7.7 km/h 93 % 0 mm
09:02 -20.2 °C -20.8 °C 35163.6 hPa NNW 2.6 km/h 7.7 km/h 92 % 0 mm
09:12 -20.1 °C -20.7 °C 35163.6 hPa Calm   7.7 km/h 92 % 0 mm
09:17 -19.9 °C -20.6 °C 35163.6 hPa North 5.1 km/h 7.7 km/h 92 % 0 mm
09:22 -19.9 °C -20.7 °C 35163.6 hPa NNW 2.6 km/h 7.7 km/h 91 % 0 mm
09:32 -19.8 °C -20.6 °C 35163.6 hPa Calm   7.7 km/h 91 % 0 mm
09:37 -19.8 °C -20.5 °C 35163.6 hPa NNE 5.1 km/h 7.7 km/h 91 % 0 mm
09:42 -19.8 °C -20.5 °C 35163.6 hPa North 5.1 km/h 7.7 km/h 91 % 0 mm
09:47 -19.7 °C -20.4 °C 35163.6 hPa NNE 2.6 km/h 7.7 km/h 91 % 0 mm
09:52 -19.7 °C -20.4 °C 35163.6 hPa NNE 2.6 km/h 12.9 km/h 90 % 0 mm
09:57 -19.6 °C -20.4 °C 35163.6 hPa NE 5.1 km/h 12.9 km/h 90 % 0 mm
10:02 -19.6 °C -20.4 °C 35163.6 hPa NE 5.1 km/h 12.9 km/h 89 % 0 mm
10:07 -19.5 °C -20.3 °C 35163.6 hPa NE 2.6 km/h 12.9 km/h 90 % 0 mm
10:12 -19.4 °C -20.3 °C 35163.6 hPa NE 2.6 km/h 12.9 km/h 89 % 0 mm
10:18 -19.4 °C -20.4 °C 35173.8 hPa NNE 7.7 km/h 18.2 km/h 88 % 0 mm
10:27 -19.4 °C -20.4 °C 35173.8 hPa NE 5.1 km/h 18.2 km/h 88 % 0 mm
10:32 -19.4 °C -20.3 °C 35173.8 hPa NNW 7.7 km/h 18.2 km/h 88 % 0 mm
10:37 -19.3 °C -20.3 °C 35173.8 hPa North 2.6 km/h 20.8 km/h 88 % 0 mm
10:42 -19.3 °C -20.3 °C 35173.8 hPa NE 5.1 km/h 20.8 km/h 88 % 0 mm
10:47 -19.3 °C -20.2 °C 35173.8 hPa NE 10.3 km/h 20.8 km/h 88 % 0 mm
10:57 -19.1 °C -20.1 °C 35173.8 hPa East 5.1 km/h 15.6 km/h 88 % 0 mm
11:02 -19.1 °C -20.1 °C 35173.8 hPa NE 7.7 km/h 15.6 km/h 88 % 0 mm
11:07 -19.1 °C -20 °C 35173.8 hPa ENE 2.6 km/h 12.9 km/h 88 % 0 mm
11:17 -19.1 °C -20.1 °C 35173.8 hPa NE 12.9 km/h 15.6 km/h 87 % 0 mm
11:22 -19 °C -20.1 °C 35163.6 hPa North 7.7 km/h 15.6 km/h 87 % 0 mm
11:27 -19 °C -20.1 °C 35173.8 hPa North 5.1 km/h 15.6 km/h 87 % 0 mm
11:32 -18.9 °C -20.1 °C 35173.8 hPa NNE 15.6 km/h 18.2 km/h 86 % 0 mm
11:37 -18.9 °C -20 °C 35173.8 hPa NW 2.6 km/h 23.3 km/h 87 % 0 mm
11:42 -18.8 °C -19.8 °C 35173.8 hPa NE 7.7 km/h 23.3 km/h 88 % 0 mm
11:47 -18.7 °C -19.7 °C 35173.8 hPa NNE 7.7 km/h 20.8 km/h 88 % 0 mm
11:52 -18.7 °C -19.8 °C 35173.8 hPa North 2.6 km/h 18.2 km/h 87 % 0 mm
11:57 -18.6 °C -19.7 °C 35173.8 hPa North 12.9 km/h 18.2 km/h 87 % 0 mm
12:02 -18.6 °C -19.8 °C 35173.8 hPa NE 5.1 km/h 20.8 km/h 85 % 0 mm
12:07 -18.5 °C -19.6 °C 35163.6 hPa NE 10.3 km/h 20.8 km/h 86 % 0 mm
12:12 -18.5 °C -19.7 °C 35163.6 hPa NE 10.3 km/h 20.8 km/h 85 % 0 mm
12:17 -18.4 °C -19.8 °C 35163.6 hPa NE 5.1 km/h 18.2 km/h 84 % 0 mm
12:22 -18.4 °C -19.7 °C 35163.6 hPa NE 10.3 km/h 15.6 km/h 85 % 0 mm
12:27 -18.4 °C -19.8 °C 35163.6 hPa NE 15.6 km/h 23.3 km/h 83 % 0 mm
12:32 -18.4 °C -19.8 °C 35163.6 hPa NE 25.9 km/h 25.9 km/h 83 % 0 mm
12:42 -18.4 °C -19.8 °C 35163.6 hPa NNE 23.3 km/h 25.9 km/h 83 % 0 mm
12:47 -18.4 °C -19.9 °C 35163.6 hPa NE 20.8 km/h 31.1 km/h 82 % 0 mm
12:52 -18.4 °C -19.9 °C 35163.6 hPa NE 18.2 km/h 31.1 km/h 82 % 0 mm
12:57 -18.4 °C -19.9 °C 35163.6 hPa NNE 15.6 km/h 31.1 km/h 81 % 0 mm
13:02 -18.3 °C -19.8 °C 35163.6 hPa NE 20.8 km/h 31.1 km/h 81 % 0 mm
13:07 -18.2 °C -20 °C 35163.6 hPa NNE 18.2 km/h 25.9 km/h 79 % 0 mm
13:12 -18.2 °C -20 °C 35163.6 hPa NE 18.2 km/h 31.1 km/h 79 % 0 mm
13:17 -18.2 °C -20 °C 35150.1 hPa NNE 10.3 km/h 31.1 km/h 79 % 0 mm
13:22 -18.2 °C -19.9 °C 35150.1 hPa NNE 20.8 km/h 31.1 km/h 79 % 0 mm
13:27 -18.1 °C -19.9 °C 35150.1 hPa NNE 10.3 km/h 25.9 km/h 79 % 0 mm
13:32 -18.2 °C -19.9 °C 35150.1 hPa NE 20.8 km/h 25.9 km/h 79 % 0 mm
13:37 -18.1 °C -19.9 °C 35150.1 hPa ENE 5.1 km/h 25.9 km/h 79 % 0 mm
13:42 -18.1 °C -19.8 °C 35150.1 hPa ENE 5.1 km/h 25.9 km/h 79 % 0 mm
13:47 -18 °C -19.7 °C 35150.1 hPa NE 7.7 km/h 25.9 km/h 80 % 0 mm
13:52 -18 °C -19.7 °C 35139.9 hPa NE 7.7 km/h 25.9 km/h 80 % 0 mm
13:57 -18 °C -19.7 °C 35139.9 hPa Calm   25.9 km/h 80 % 0 mm
14:02 -17.9 °C -20.4 °C 35139.9 hPa NE 20.8 km/h 25.9 km/h 72 % 0 mm
14:07 -18 °C -20.4 °C 35129.8 hPa NNE 20.8 km/h 25.9 km/h 72 % 0 mm
14:12 -18 °C -20.8 °C 35129.8 hPa East 18.2 km/h 31.1 km/h 69 % 0 mm
14:17 -17.9 °C -20.4 °C 35139.9 hPa ENE 5.1 km/h 31.1 km/h 71 % 0 mm
14:22 -17.9 °C -20.4 °C 35139.9 hPa ENE 15.6 km/h 31.1 km/h 71 % 0 mm
14:32 -17.8 °C -20.3 °C 35129.8 hPa NE 7.7 km/h 31.1 km/h 72 % 0 mm
14:37 -17.8 °C -20.5 °C 35129.8 hPa NE 12.9 km/h 23.3 km/h 70 % 0 mm
14:42 -17.8 °C -20.3 °C 35129.8 hPa NNE 10.3 km/h 25.9 km/h 72 % 0 mm
14:47 -17.8 °C -20.2 °C 35129.8 hPa Calm   25.9 km/h 72 % 0 mm
14:52 -17.8 °C -20.2 °C 35129.8 hPa NE 10.3 km/h 20.8 km/h 72 % 0 mm
14:57 -17.8 °C -20.3 °C 35129.8 hPa NE 5.1 km/h 18.2 km/h 71 % 0 mm
15:02 -17.7 °C -20.5 °C 35116.2 hPa ENE 10.3 km/h 23.3 km/h 69 % 0 mm
15:07 -17.7 °C -20.4 °C 35116.2 hPa NE 5.1 km/h 23.3 km/h 70 % 0 mm
15:12 -17.7 °C -20.5 °C 35116.2 hPa NE 10.3 km/h 20.8 km/h 69 % 0 mm
15:17 -17.7 °C -20.2 °C 35116.2 hPa East 2.6 km/h 20.8 km/h 71 % 0 mm
15:22 -17.7 °C -20.6 °C 35116.2 hPa NNE 18.2 km/h 20.8 km/h 68 % 0 mm
15:27 -17.7 °C -20.5 °C 35116.2 hPa NNE 18.2 km/h 23.3 km/h 69 % 0 mm
15:32 -17.7 °C -20.5 °C 35129.8 hPa NE 10.3 km/h 23.3 km/h 69 % 0 mm
15:42 -17.7 °C -20.6 °C 35116.2 hPa NNE 12.9 km/h 23.3 km/h 68 % 0 mm
15:47 -17.7 °C -20.6 °C 35116.2 hPa NE 12.9 km/h 23.3 km/h 68 % 0 mm
15:52 -17.7 °C -20.6 °C 35116.2 hPa NE 7.7 km/h 20.8 km/h 68 % 0 mm
15:57 -17.7 °C -20.5 °C 35116.2 hPa ENE 10.3 km/h 23.3 km/h 69 % 0 mm
16:02 -17.7 °C -20.7 °C 35116.2 hPa NE 15.6 km/h 23.3 km/h 67 % 0 mm
16:07 -17.7 °C -20.8 °C 35116.2 hPa North 7.7 km/h 23.3 km/h 66 % 0 mm
16:12 -17.7 °C -20.6 °C 35129.8 hPa NNE 7.7 km/h 23.3 km/h 68 % 0 mm
16:17 -17.7 °C -20.7 °C 35129.8 hPa NNW 7.7 km/h 23.3 km/h 67 % 0 mm
16:22 -17.8 °C -21.1 °C 35129.8 hPa NNE 12.9 km/h 23.3 km/h 64 % 0 mm
16:27 -17.8 °C -21.2 °C 35129.8 hPa NNE 7.7 km/h 25.9 km/h 63 % 0 mm
16:32 -17.8 °C -21 °C 35129.8 hPa NE 10.3 km/h 25.9 km/h 65 % 0 mm
16:37 -17.8 °C -20.4 °C 35129.8 hPa NNE 7.7 km/h 25.9 km/h 70 % 0 mm
16:42 -17.8 °C -20.3 °C 35129.8 hPa NE 10.3 km/h 23.3 km/h 72 % 0 mm
16:47 -17.9 °C -20.4 °C 35129.8 hPa NNE 5.1 km/h 18.2 km/h 71 % 0 mm
16:52 -17.9 °C -20.5 °C 35129.8 hPa NNE 15.6 km/h 20.8 km/h 71 % 0 mm
16:57 -18 °C -20.6 °C 35129.8 hPa NE 5.1 km/h 23.3 km/h 71 % 0 mm
17:07 -18.2 °C -20.6 °C 35129.8 hPa NNW 2.6 km/h 23.3 km/h 72 % 0 mm
17:12 -18.2 °C -20.8 °C 35129.8 hPa NNE 10.3 km/h 23.3 km/h 71 % 0 mm
17:17 -18.3 °C -20.7 °C 35129.8 hPa NNE 5.1 km/h 20.8 km/h 72 % 0 mm
17:22 -18.3 °C -20.9 °C 35129.8 hPa NNE 5.1 km/h 20.8 km/h 71 % 0 mm
17:27 -18.4 °C -20.7 °C 35129.8 hPa ENE 12.9 km/h 23.3 km/h 73 % 0 mm
17:37 -18.5 °C -20.8 °C 35129.8 hPa NNE 10.3 km/h 25.9 km/h 73 % 0 mm
17:42 -18.5 °C -20.8 °C 35129.8 hPa North 12.9 km/h 25.9 km/h 73 % 0 mm
17:47 -18.6 °C -20.9 °C 35129.8 hPa NNE 20.8 km/h 23.3 km/h 73 % 0 mm
17:57 -18.7 °C -20.8 °C 35129.8 hPa North 7.7 km/h 20.8 km/h 75 % 0 mm
18:02 -18.7 °C -20.9 °C 35116.2 hPa NE 7.7 km/h 20.8 km/h 74 % 0 mm
18:12 -18.7 °C -20.9 °C 35116.2 hPa NE 15.6 km/h 25.9 km/h 74 % 0 mm
18:22 -18.8 °C -20.9 °C 35116.2 hPa NE 15.6 km/h 23.3 km/h 76 % 0 mm
18:32 -18.8 °C -20.9 °C 35116.2 hPa NE 12.9 km/h 20.8 km/h 76 % 0 mm
18:42 -18.9 °C -21 °C 35116.2 hPa NE 20.8 km/h 20.8 km/h 76 % 0 mm
18:47 -18.9 °C -20.9 °C 35116.2 hPa NNE 15.6 km/h 23.3 km/h 77 % 0 mm
18:52 -18.9 °C -20.9 °C 35129.8 hPa NNE 15.6 km/h 23.3 km/h 77 % 0 mm
19:02 -19 °C -20.9 °C 35129.8 hPa North 10.3 km/h 23.3 km/h 77 % 0 mm
19:07 -19 °C -20.8 °C 35129.8 hPa NNE 18.2 km/h 23.3 km/h 78 % 0 mm
19:12 -19.1 °C -20.9 °C 35129.8 hPa NNE 15.6 km/h 23.3 km/h 78 % 0 mm
19:22 -19.1 °C -20.9 °C 35129.8 hPa NE 23.3 km/h 25.9 km/h 78 % 0 mm
19:27 -19.1 °C -20.9 °C 35129.8 hPa NE 12.9 km/h 31.1 km/h 78 % 0 mm
19:32 -19.1 °C -20.9 °C 35129.8 hPa NE 25.9 km/h 31.1 km/h 78 % 0 mm
19:37 -19.1 °C -20.8 °C 35129.8 hPa NNE 15.6 km/h 31.1 km/h 79 % 0 mm
19:47 -19.2 °C -20.9 °C 35129.8 hPa NE 15.6 km/h 25.9 km/h 79 % 0 mm
19:57 -19.3 °C -20.9 °C 35129.8 hPa NE 15.6 km/h 23.3 km/h 80 % 0 mm
20:02 -19.3 °C -20.9 °C 35129.8 hPa North 7.7 km/h 23.3 km/h 80 % 0 mm
20:07 -19.4 °C -20.9 °C 35129.8 hPa NNE 10.3 km/h 23.3 km/h 81 % 0 mm
20:17 -19.4 °C -20.8 °C 35129.8 hPa North 10.3 km/h 28.5 km/h 82 % 0 mm
20:27 -19.3 °C -20.8 °C 35129.8 hPa NNE 15.6 km/h 28.5 km/h 82 % 0 mm
20:32 -19.3 °C -20.9 °C 35129.8 hPa NE 12.9 km/h 31.1 km/h 81 % 0 mm
20:37 -19.4 °C -20.8 °C 35129.8 hPa NNE 12.9 km/h 31.1 km/h 82 % 0 mm
20:42 -19.4 °C -20.8 °C 35129.8 hPa NNE 15.6 km/h 25.9 km/h 82 % 0 mm
20:47 -19.4 °C -20.9 °C 35129.8 hPa NE 7.7 km/h 23.3 km/h 82 % 0 mm
20:57 -19.5 °C -20.9 °C 35129.8 hPa NE 2.6 km/h 18.2 km/h 83 % 0 mm
21:02 -19.6 °C -20.9 °C 35129.8 hPa Calm   18.2 km/h 83 % 0 mm
21:12 -19.6 °C -20.9 °C 35129.8 hPa Calm   10.3 km/h 84 % 0 mm
21:17 -19.7 °C -20.9 °C 35129.8 hPa Calm   10.3 km/h 84 % 0 mm
21:27 -19.8 °C -21.1 °C 35129.8 hPa Calm   10.3 km/h 84 % 0 mm
21:32 -19.9 °C -21.1 °C 35129.8 hPa WNW 2.6 km/h 5.1 km/h 85 % 0 mm
21:37 -20.1 °C -21.2 °C 35129.8 hPa Calm   5.1 km/h 85 % 0 mm
21:42 -20.1 °C -21.2 °C 35129.8 hPa WNW 2.6 km/h 2.6 km/h 86 % 0 mm
21:47 -20.1 °C -21.2 °C 35129.8 hPa Calm   5.1 km/h 86 % 0 mm
21:57 -20.1 °C -21.2 °C 35129.8 hPa Calm   5.1 km/h 86 % 0 mm
22:02 -20.1 °C -21.2 °C 35129.8 hPa Calm   5.1 km/h 86 % 0 mm
22:07 -20.1 °C -21.2 °C 35129.8 hPa NW 2.6 km/h 5.1 km/h 86 % 0 mm
22:12 -20.1 °C -21.2 °C 35129.8 hPa Calm   5.1 km/h 86 % 0 mm
22:17 -20.1 °C -21.2 °C 35129.8 hPa Calm   5.1 km/h 85 % 0 mm
22:22 -20.1 °C -21.2 °C 35129.8 hPa Calm   5.1 km/h 86 % 0 mm
22:27 -20.1 °C -21.2 °C 35129.8 hPa Calm   5.1 km/h 86 % 0 mm
22:37 -20.1 °C -21.2 °C 35129.8 hPa Calm     86 % 0 mm
22:42 -20.1 °C -21.2 °C 35129.8 hPa NNW 2.6 km/h 7.7 km/h 86 % 0 mm
22:52 -20.2 °C -21.3 °C 35129.8 hPa North 5.1 km/h 10.3 km/h 86 % 0 mm
22:57 -20.2 °C -21.3 °C 35129.8 hPa NNW 2.6 km/h 10.3 km/h 86 % 0 mm
23:02 -20.2 °C -21.3 °C 35129.8 hPa NNW 2.6 km/h 10.3 km/h 86 % 0 mm
Meteo18
Compliments of Weather Underground - 4 mb

Script developed by  Jim McMurry - jmcmurry@mwt.net Adapted for the template by  Wim van der Kuil - Leuven-Template.eu

You find our weather info also at:

European Weather Network

Weather Underground

Equipment we use:

Weather-station
Davis Vue

Weather-program
Meteobridge

Weather-server
Raspberry PI 2 B+

Provider
1 and 1

Davis Vue

Meteobridge

Raspberry PI 2 B+

1 and 1